Time;durP1;ratioP1;P1;durP2;ratioP2;P2;SDS_P1;SDS_P2;PMS_P1;PMS_P2;Temp;Humidity;BMP_temperature;BMP_pressure;BME280_temperature;BME280_humidity;BME280_pressure;Samples;Min_cycle;Max_cycle;Signal;HPM_P1;HPM_P2
2023/09/04 00:00:44;;;;;;;15.48;7.32;;;13.20;99.90;;;;;;4994760;28;20076;-75
2023/09/04 00:03:09;;;;;;;16.80;7.95;;;13.20;99.90;;;;;;4994264;28;20050;-75
2023/09/04 00:05:35;;;;;;;15.48;7.85;;;13.20;99.90;;;;;;4993618;28;20100;-75
2023/09/04 00:08:01;;;;;;;21.35;7.55;;;13.20;99.90;;;;;;4994318;28;20058;-73
2023/09/04 00:10:27;;;;;;;16.65;7.90;;;13.20;99.90;;;;;;4995385;28;20058;-76
2023/09/04 00:12:53;;;;;;;13.65;7.15;;;13.20;99.90;;;;;;4994635;28;20097;-75
2023/09/04 00:15:19;;;;;;;15.13;7.78;;;13.20;99.90;;;;;;4994513;28;20133;-75
2023/09/04 00:17:50;;;;;;;15.85;7.20;;;13.20;99.90;;;;;;4995306;28;20050;-75
2023/09/04 00:20:16;;;;;;;12.70;6.60;;;13.10;99.90;;;;;;4994749;28;20055;-75
2023/09/04 00:22:42;;;;;;;15.27;7.18;;;13.10;99.90;;;;;;4993372;28;20046;-75
2023/09/04 00:25:09;;;;;;;12.68;6.30;;;13.10;99.90;;;;;;4994342;28;20049;-74
2023/09/04 00:27:35;;;;;;;11.90;6.10;;;13.10;99.90;;;;;;4993810;28;20050;-75
2023/09/04 00:30:00;;;;;;;13.55;6.47;;;13.10;99.90;;;;;;4993123;28;20057;-74
2023/09/04 00:32:26;;;;;;;11.93;6.45;;;13.10;99.90;;;;;;4993886;28;20046;-75
2023/09/04 00:34:52;;;;;;;13.32;6.30;;;13.00;99.90;;;;;;4994865;28;20049;-74
2023/09/04 00:37:17;;;;;;;16.95;6.80;;;13.00;99.90;;;;;;4993890;28;20372;-74
2023/09/04 00:39:44;;;;;;;14.80;6.85;;;13.00;99.90;;;;;;4995126;28;20050;-74
2023/09/04 00:42:10;;;;;;;15.98;7.30;;;13.00;99.90;;;;;;4977170;28;20138;-75
2023/09/04 00:44:36;;;;;;;15.52;7.30;;;13.00;99.90;;;;;;4994885;28;20122;-74
2023/09/04 00:47:03;;;;;;;13.15;7.30;;;12.90;99.90;;;;;;4993553;28;20055;-74
2023/09/04 00:49:29;;;;;;;13.05;7.00;;;12.90;99.90;;;;;;4994502;28;20050;-75
2023/09/04 00:51:56;;;;;;;14.65;7.32;;;12.90;99.90;;;;;;4992590;28;20042;-74
2023/09/04 00:54:23;;;;;;;;;;;12.80;99.90;;;;;;4994620;28;20050;-75
2023/09/04 00:56:51;;;;;;;14.02;6.90;;;12.80;99.90;;;;;;4994785;28;19921;-75
2023/09/04 00:59:18;;;;;;;15.23;6.45;;;12.80;99.90;;;;;;4995210;28;20394;-75
2023/09/04 01:01:43;;;;;;;14.98;6.32;;;12.70;99.90;;;;;;4993254;28;20050;-75
2023/09/04 01:04:09;;;;;;;14.10;7.18;;;12.80;99.90;;;;;;4992411;28;20077;-74
2023/09/04 01:06:35;;;;;;;17.67;6.80;;;12.80;99.90;;;;;;4994031;28;20053;-76
2023/09/04 01:09:01;;;;;;;17.33;8.13;;;12.70;99.90;;;;;;4993161;28;20556;-75
2023/09/04 01:11:32;;;;;;;14.27;7.05;;;12.70;99.90;;;;;;4994193;28;20054;-76
2023/09/04 01:14:01;;;;;;;19.50;7.70;;;12.70;99.90;;;;;;4993923;28;20499;-74
2023/09/04 01:16:28;;;;;;;25.45;10.15;;;12.60;99.90;;;;;;4993767;28;20055;-75
2023/09/04 01:18:54;;;;;;;19.37;7.87;;;12.60;99.90;;;;;;4996816;28;20438;-74
2023/09/04 01:21:19;;;;;;;18.33;7.23;;;12.60;99.90;;;;;;4993468;28;20078;-75
2023/09/04 01:23:45;;;;;;;18.25;9.00;;;12.50;99.90;;;;;;4993698;28;20800;-75
2023/09/04 01:26:26;;;;;;;15.38;7.85;;;12.50;99.90;;;;;;4976612;28;20129;-75
2023/09/04 01:29:03;;;;;;;16.13;7.50;;;12.50;99.90;;;;;;4993752;28;20109;-75
2023/09/04 01:31:50;;;;;;;18.30;8.70;;;12.50;99.90;;;;;;4993018;28;20051;-74
2023/09/04 01:34:25;;;;;;;16.85;8.30;;;12.50;99.90;;;;;;4993673;28;20057;-73
2023/09/04 01:36:52;;;;;;;16.38;8.52;;;12.40;99.90;;;;;;4992867;28;20371;-75
2023/09/04 01:39:23;;;;;;;19.08;8.80;;;12.40;99.90;;;;;;4993558;28;20145;-76
2023/09/04 01:41:49;;;;;;;19.05;8.73;;;12.40;99.90;;;;;;4993563;28;20051;-75
2023/09/04 01:44:15;;;;;;;17.27;8.77;;;12.40;99.90;;;;;;4994071;28;20080;-74
2023/09/04 01:46:41;;;;;;;18.10;9.20;;;12.30;99.90;;;;;;4992670;28;20093;-75
2023/09/04 01:49:10;;;;;;;19.63;9.70;;;12.30;99.90;;;;;;4994055;28;20046;-75
2023/09/04 01:51:35;;;;;;;21.17;10.15;;;12.40;99.90;;;;;;4993971;28;20038;-76
2023/09/04 01:54:01;;;;;;;20.00;10.18;;;12.30;99.90;;;;;;4993501;28;20050;-76
2023/09/04 01:56:27;;;;;;;23.98;10.02;;;12.30;99.90;;;;;;4993902;28;20050;-76
2023/09/04 01:58:53;;;;;;;22.23;9.85;;;12.30;99.90;;;;;;4996572;28;20157;-75
2023/09/04 02:01:18;;;;;;;23.75;11.13;;;12.20;99.90;;;;;;4997445;28;20050;-74
2023/09/04 02:03:51;;;;;;;24.83;11.55;;;12.30;99.90;;;;;;4997465;28;20054;-75
2023/09/04 02:06:17;;;;;;;25.90;12.05;;;12.30;99.90;;;;;;4996615;28;20487;-73
2023/09/04 02:08:45;;;;;;;24.00;11.35;;;12.20;99.90;;;;;;4996091;28;20054;-76
2023/09/04 02:11:11;;;;;;;24.55;10.77;;;12.20;99.90;;;;;;4996817;28;20046;-74
2023/09/04 02:13:36;;;;;;;27.65;11.93;;;12.20;99.90;;;;;;4996646;28;20499;-76
2023/09/04 02:16:02;;;;;;;26.75;13.02;;;12.20;99.90;;;;;;4995672;28;20422;-75
2023/09/04 02:18:28;;;;;;;29.35;13.32;;;12.20;99.90;;;;;;4995867;28;20184;-75
2023/09/04 02:20:53;;;;;;;29.60;14.15;;;12.20;99.90;;;;;;4996593;28;20057;-75
2023/09/04 02:23:19;;;;;;;26.75;13.40;;;12.20;99.90;;;;;;4995883;28;20042;-73
2023/09/04 02:25:48;;;;;;;31.95;14.68;;;12.20;99.90;;;;;;4996781;28;20046;-76
2023/09/04 02:28:17;;;;;;;29.90;15.00;;;12.30;99.90;;;;;;5000896;28;20050;-75
2023/09/04 02:30:43;;;;;;;30.25;15.27;;;12.20;99.90;;;;;;4980654;28;20520;-75
2023/09/04 02:33:09;;;;;;;35.65;18.00;;;12.20;99.90;;;;;;4995114;28;20118;-75
2023/09/04 02:35:35;;;;;;;39.47;18.85;;;12.20;99.90;;;;;;4996289;28;20050;-75
2023/09/04 02:38:00;;;;;;;36.15;19.98;;;12.20;99.90;;;;;;4996062;28;20042;-75
2023/09/04 02:40:26;;;;;;;39.90;19.77;;;12.20;99.90;;;;;;4994991;28;20050;-74
2023/09/04 02:42:52;;;;;;;36.70;18.67;;;12.20;99.90;;;;;;4995206;28;20121;-75
2023/09/04 02:45:18;;;;;;;36.10;19.00;;;12.10;99.90;;;;;;4978984;28;20441;-74
2023/09/04 02:47:43;;;;;;;38.28;18.60;;;12.10;99.90;;;;;;4995657;28;20053;-75
2023/09/04 02:50:10;;;;;;;37.83;19.88;;;12.10;99.90;;;;;;4994782;28;20061;-74
2023/09/04 02:52:36;;;;;;;38.78;20.15;;;12.10;99.90;;;;;;4996171;28;20434;-75
2023/09/04 02:55:04;;;;;;;39.78;19.95;;;12.10;99.90;;;;;;4995926;28;20049;-75
2023/09/04 02:57:31;;;;;;;40.50;18.48;;;12.10;99.90;;;;;;4995261;28;20093;-74
2023/09/04 02:59:58;;;;;;;39.42;18.88;;;12.00;99.90;;;;;;4995898;28;20487;-75
2023/09/04 03:02:24;;;;;;;35.05;17.08;;;12.00;99.90;;;;;;4995838;28;20089;-75
2023/09/04 03:04:54;;;;;;;34.00;16.33;;;12.00;99.90;;;;;;4978035;28;20112;-74
2023/09/04 03:07:26;;;;;;;33.15;14.98;;;12.00;99.90;;;;;;4995715;28;20084;-75
2023/09/04 03:09:56;;;;;;;33.53;15.07;;;12.00;99.90;;;;;;4995921;28;20112;-74
2023/09/04 03:12:29;;;;;;;33.53;14.60;;;11.90;99.90;;;;;;4995535;28;20058;-75
2023/09/04 03:14:58;;;;;;;30.45;13.48;;;11.90;99.90;;;;;;4995594;28;20082;-74
2023/09/04 03:17:24;;;;;;;32.10;13.82;;;12.00;99.90;;;;;;4994872;28;20129;-75
2023/09/04 03:19:55;;;;;;;32.97;14.10;;;11.90;99.90;;;;;;4995643;28;20057;-75
2023/09/04 03:22:22;;;;;;;33.63;14.73;;;11.90;99.90;;;;;;4995950;28;20038;-76
2023/09/04 03:24:47;;;;;;;31.65;14.48;;;11.90;99.90;;;;;;4995297;28;20105;-75
2023/09/04 03:27:13;;;;;;;32.22;14.85;;;11.90;99.90;;;;;;4994979;28;20494;-74
2023/09/04 03:29:39;;;;;;;35.00;14.90;;;11.80;99.90;;;;;;4994976;28;20039;-75
2023/09/04 03:32:06;;;;;;;35.70;14.85;;;11.80;99.90;;;;;;4995957;28;20126;-75
2023/09/04 03:34:31;;;;;;;38.88;15.70;;;11.80;99.90;;;;;;4995253;28;20046;-75
2023/09/04 03:36:57;;;;;;;34.78;14.80;;;11.70;99.90;;;;;;4996487;28;20104;-75
2023/09/04 03:39:24;;;;;;;38.55;16.33;;;11.70;99.90;;;;;;4996821;28;20545;-74
2023/09/04 03:41:50;;;;;;;33.83;15.43;;;11.70;99.90;;;;;;4995197;28;20042;-76
2023/09/04 03:44:17;;;;;;;32.40;14.52;;;11.70;99.90;;;;;;4995593;28;20050;-74
2023/09/04 03:46:42;;;;;;;28.23;13.17;;;11.70;99.90;;;;;;4993478;28;20046;-75
2023/09/04 03:49:08;;;;;;;35.15;14.57;;;11.70;99.90;;;;;;4977599;28;20061;-75
2023/09/04 03:51:34;;;;;;;36.25;15.32;;;11.70;99.90;;;;;;4961708;28;20082;-74
2023/09/04 03:54:03;;;;;;;34.85;15.65;;;11.70;99.90;;;;;;4994867;28;20048;-75
2023/09/04 03:56:29;;;;;;;34.42;14.63;;;11.60;99.90;;;;;;4994539;28;20050;-75
2023/09/04 03:58:58;;;;;;;32.30;14.80;;;11.60;99.90;;;;;;4994990;28;20078;-76
2023/09/04 04:01:24;;;;;;;30.80;14.35;;;11.60;99.90;;;;;;4994743;28;20046;-75
2023/09/04 04:03:50;;;;;;;37.25;15.93;;;11.50;99.90;;;;;;4995137;28;20069;-75
2023/09/04 04:06:16;;;;;;;37.45;16.65;;;11.50;99.90;;;;;;4994054;28;20042;-76
2023/09/04 04:08:44;;;;;;;37.22;16.45;;;11.50;99.90;;;;;;4994371;28;20495;-76
2023/09/04 04:11:10;;;;;;;35.80;15.38;;;11.50;99.90;;;;;;4994531;28;20050;-75
2023/09/04 04:13:36;;;;;;;37.55;14.32;;;11.50;99.90;;;;;;4994988;28;20484;-74
2023/09/04 04:16:02;;;;;;;34.15;13.88;;;11.40;99.90;;;;;;4994405;28;20054;-75
2023/09/04 04:18:30;;;;;;;30.42;13.77;;;11.40;99.90;;;;;;4994472;28;20054;-75
2023/09/04 04:20:56;;;;;;;32.60;14.95;;;11.40;99.90;;;;;;4993664;28;20050;-76
2023/09/04 04:23:22;;;;;;;33.75;13.73;;;11.40;99.90;;;;;;4994447;28;20054;-76
2023/09/04 04:25:49;;;;;;;33.78;13.88;;;11.40;99.90;;;;;;4994366;28;20097;-76
2023/09/04 04:28:19;;;;;;;33.25;14.25;;;11.40;99.90;;;;;;4994411;28;20046;-75
2023/09/04 04:30:45;;;;;;;35.17;14.20;;;11.30;99.90;;;;;;4994219;28;20061;-75
2023/09/04 04:33:12;;;;;;;32.38;14.23;;;11.30;99.90;;;;;;4960677;28;20042;-74
2023/09/04 04:35:39;;;;;;;29.77;14.13;;;11.30;99.90;;;;;;4993185;28;20061;-73
2023/09/04 04:38:08;;;;;;;33.03;14.82;;;11.20;99.90;;;;;;4993486;28;20387;-74
2023/09/04 04:40:36;;;;;;;32.80;13.25;;;11.20;99.90;;;;;;4995651;28;20050;-75
2023/09/04 04:43:03;;;;;;;31.63;13.57;;;11.20;99.90;;;;;;4994125;28;20058;-76
2023/09/04 04:45:29;;;;;;;29.92;13.55;;;11.20;99.90;;;;;;4978127;28;20062;-75
2023/09/04 04:47:55;;;;;;;32.08;14.38;;;11.20;99.90;;;;;;4995553;28;20053;-75
2023/09/04 04:50:21;;;;;;;33.67;13.77;;;11.20;99.90;;;;;;4999658;28;20058;-74
2023/09/04 04:52:47;;;;;;;30.83;13.65;;;11.20;99.90;;;;;;4977631;28;20467;-74
2023/09/04 04:55:12;;;;;;;29.95;13.38;;;11.20;99.90;;;;;;4977747;28;20054;-75
2023/09/04 04:57:39;;;;;;;31.23;13.57;;;11.20;99.90;;;;;;4994891;28;20042;-75
2023/09/04 05:00:07;;;;;;;31.30;13.70;;;11.20;99.90;;;;;;4993519;28;20108;-77
2023/09/04 05:02:33;;;;;;;32.30;15.00;;;11.20;99.90;;;;;;4992842;28;20081;-75
2023/09/04 05:04:59;;;;;;;34.87;15.43;;;11.20;99.90;;;;;;4994424;28;20371;-76
2023/09/04 05:07:25;;;;;;;35.47;15.07;;;11.30;99.90;;;;;;4992775;28;20364;-76
2023/09/04 05:09:54;;;;;;;33.97;15.05;;;11.30;99.90;;;;;;4977048;28;20093;-76
2023/09/04 05:12:20;;;;;;;34.78;14.70;;;11.30;99.90;;;;;;4993838;28;20073;-76
2023/09/04 05:14:46;;;;;;;36.03;15.77;;;11.30;99.90;;;;;;4993580;28;20050;-75
2023/09/04 05:17:11;;;;;;;34.60;14.68;;;11.40;99.90;;;;;;4994062;28;20050;-75
2023/09/04 05:19:37;;;;;;;29.40;12.77;;;11.40;99.90;;;;;;4994469;28;20085;-76
2023/09/04 05:22:03;;;;;;;29.20;13.05;;;11.40;99.90;;;;;;4995492;28;20069;-75
2023/09/04 05:24:29;;;;;;;31.65;13.77;;;11.40;99.90;;;;;;4978487;28;20050;-75
2023/09/04 05:26:54;;;;;;;29.33;13.35;;;11.50;99.90;;;;;;4977288;28;20066;-76
2023/09/04 05:29:20;;;;;;;34.28;13.98;;;11.50;99.90;;;;;;4993732;28;20093;-76
2023/09/04 05:31:52;;;;;;;31.17;14.00;;;11.60;99.90;;;;;;4993388;28;20138;-75
2023/09/04 05:34:18;;;;;;;31.25;14.00;;;11.70;99.90;;;;;;4997766;28;20482;-75
2023/09/04 05:36:44;;;;;;;36.53;15.18;;;11.70;99.90;;;;;;4997560;28;20054;-77
2023/09/04 05:39:10;;;;;;;29.40;13.98;;;11.80;99.90;;;;;;4981712;28;20168;-76
2023/09/04 05:41:36;;;;;;;34.35;14.32;;;11.80;99.90;;;;;;5001310;28;20050;-77
2023/09/04 05:44:02;;;;;;;36.05;15.25;;;11.80;99.90;;;;;;4997628;28;20046;-77
2023/09/04 05:46:29;;;;;;;38.78;15.48;;;11.90;99.90;;;;;;4997644;28;20054;-76
2023/09/04 05:48:55;;;;;;;35.47;14.45;;;12.00;99.90;;;;;;4997439;28;20050;-77
2023/09/04 05:51:20;;;;;;;30.83;14.73;;;12.00;99.90;;;;;;4979766;28;20047;-76
2023/09/04 05:53:46;;;;;;;32.35;15.57;;;12.10;99.90;;;;;;4995890;28;20394;-76
2023/09/04 05:56:12;;;;;;;36.78;15.05;;;12.20;99.90;;;;;;4996700;28;20137;-77
2023/09/04 05:58:44;;;;;;;35.15;15.52;;;12.20;99.90;;;;;;4997375;28;20132;-76
2023/09/04 06:01:11;;;;;;;35.70;15.77;;;12.30;99.90;;;;;;4995964;28;20058;-78
2023/09/04 06:03:37;;;;;;;39.28;16.63;;;12.40;99.90;;;;;;4963347;28;20050;-78
2023/09/04 06:06:03;;;;;;;39.73;17.00;;;12.50;99.90;;;;;;4995557;28;20061;-76
2023/09/04 06:08:30;;;;;;;34.95;16.73;;;12.50;99.90;;;;;;4996511;28;20054;-76
2023/09/04 06:10:56;;;;;;;38.33;17.23;;;12.60;99.90;;;;;;4979447;28;20081;-77
2023/09/04 06:13:22;;;;;;;41.38;18.70;;;12.70;99.90;;;;;;4996650;28;20088;-76
2023/09/04 06:15:51;;;;;;;39.00;18.20;;;12.80;99.90;;;;;;4995574;28;20146;-77
2023/09/04 06:18:19;;;;;;;42.42;19.15;;;12.90;99.90;;;;;;4996784;28;20125;-79
2023/09/04 06:20:46;;;;;;;47.97;18.88;;;12.90;99.90;;;;;;4996576;28;20039;-76
2023/09/04 06:23:12;;;;;;;44.95;19.17;;;13.00;99.90;;;;;;4996698;28;20103;-77
2023/09/04 06:25:39;;;;;;;42.65;18.50;;;13.00;99.90;;;;;;4996137;28;20042;-78
2023/09/04 06:28:06;;;;;;;41.53;18.60;;;13.10;99.90;;;;;;4996936;28;20062;-76
2023/09/04 06:30:31;;;;;;;42.30;18.85;;;13.20;99.90;;;;;;4996265;28;20061;-76
2023/09/04 06:32:57;;;;;;;40.83;19.20;;;13.20;99.90;;;;;;4978671;28;20550;-78
2023/09/04 06:35:23;;;;;;;37.47;18.00;;;13.20;99.90;;;;;;4996424;28;20092;-76
2023/09/04 06:37:49;;;;;;;39.95;18.52;;;13.30;99.90;;;;;;4996373;28;20065;-77
2023/09/04 06:40:16;;;;;;;40.00;18.63;;;13.40;99.90;;;;;;4995914;28;20046;-77
2023/09/04 06:42:41;;;;;;;44.60;18.27;;;13.40;99.90;;;;;;4979226;28;20126;-77
2023/09/04 06:45:08;;;;;;;39.15;18.45;;;13.40;99.90;;;;;;4996149;28;20077;-79
2023/09/04 06:47:33;;;;;;;39.92;17.58;;;13.50;99.90;;;;;;4994998;28;20073;-76
2023/09/04 06:50:01;;;;;;;40.15;17.63;;;13.60;99.90;;;;;;4995426;28;20046;-77
2023/09/04 06:52:26;;;;;;;;;;;13.70;99.90;;;;;;4995191;28;20049;-76
2023/09/04 06:54:52;;;;;;;54.30;17.47;;;13.80;99.90;;;;;;4996982;28;19922;-78
2023/09/04 06:57:18;;;;;;;43.53;18.52;;;13.80;99.90;;;;;;4995617;28;20054;-82
2023/09/04 06:59:43;;;;;;;42.63;18.70;;;13.90;99.90;;;;;;4995158;28;20471;-77
2023/09/04 07:02:09;;;;;;;38.90;18.10;;;14.00;99.90;;;;;;4994663;28;20105;-79
2023/09/04 07:04:35;;;;;;;42.08;19.00;;;14.10;99.90;;;;;;4996115;28;20056;-77
2023/09/04 07:07:01;;;;;;;43.90;19.38;;;14.20;99.90;;;;;;4996741;28;20189;-78
2023/09/04 07:09:26;;;;;;;45.53;18.42;;;14.20;99.90;;;;;;4996255;28;20478;-76
2023/09/04 07:11:52;;;;;;;43.83;19.98;;;14.30;99.90;;;;;;4995821;28;20498;-76
2023/09/04 07:14:18;;;;;;;42.92;19.15;;;14.40;99.90;;;;;;4995658;28;20372;-79
2023/09/04 07:16:43;;;;;;;40.92;19.67;;;14.50;99.90;;;;;;4995497;28;20048;-76
2023/09/04 07:19:09;;;;;;;41.60;19.45;;;14.70;99.90;;;;;;4995167;28;20042;-76
2023/09/04 07:21:36;;;;;;;45.95;20.27;;;14.80;99.90;;;;;;4995474;28;20046;-77
2023/09/04 07:24:03;;;;;;;42.15;18.70;;;15.00;99.90;;;;;;4995413;28;20085;-75
2023/09/04 07:26:29;;;;;;;;;;;15.00;99.90;;;;;;4995095;28;20080;-78
2023/09/04 07:28:55;;;;;;;41.93;16.90;;;15.10;99.90;;;;;;4994095;28;20340;-74
2023/09/04 07:31:21;;;;;;;41.72;17.77;;;15.20;99.90;;;;;;4995189;28;20288;-76
2023/09/04 07:33:50;;;;;;;36.42;16.85;;;15.20;99.90;;;;;;4995608;28;20042;-72
2023/09/04 07:36:17;;;;;;;38.22;17.80;;;15.30;99.90;;;;;;4993809;28;20105;-76
2023/09/04 07:38:44;;;;;;;37.65;16.50;;;15.40;99.90;;;;;;4995176;28;20081;-74
2023/09/04 07:41:10;;;;;;;40.58;17.83;;;15.50;99.90;;;;;;4995004;28;20050;-73
2023/09/04 07:43:36;;;;;;;38.42;17.90;;;15.60;99.90;;;;;;4993842;28;20129;-74
2023/09/04 07:46:03;;;;;;;34.97;16.52;;;15.70;99.90;;;;;;4977770;28;20089;-74
2023/09/04 07:48:29;;;;;;;37.55;16.98;;;15.80;99.90;;;;;;4994647;28;20103;-72
2023/09/04 07:50:56;;;;;;;38.90;17.02;;;15.90;99.90;;;;;;4994839;28;20058;-73
2023/09/04 07:53:23;;;;;;;36.22;17.48;;;16.00;99.90;;;;;;4994917;28;20050;-75
2023/09/04 07:55:51;;;;;;;39.17;18.55;;;16.10;99.90;;;;;;4992911;28;20085;-73
2023/09/04 07:58:17;;;;;;;40.97;18.02;;;16.10;99.90;;;;;;4994626;28;20406;-73
2023/09/04 08:00:46;;;;;;;33.43;16.53;;;16.20;99.90;;;;;;4994707;28;20081;-71
2023/09/04 08:03:12;;;;;;;41.63;17.75;;;16.30;99.90;;;;;;4994600;28;20367;-75
2023/09/04 08:05:39;;;;;;;37.75;16.60;;;16.40;99.90;;;;;;4993088;28;20514;-73
2023/09/04 08:08:09;;;;;;;37.60;17.27;;;16.40;99.90;;;;;;4994605;28;20069;-75
2023/09/04 08:10:39;;;;;;;34.97;16.45;;;16.50;99.90;;;;;;4993488;28;20085;-73
2023/09/04 08:13:09;;;;;;;32.15;15.68;;;16.60;99.90;;;;;;4994571;28;20129;-73
2023/09/04 08:15:35;;;;;;;35.55;16.75;;;16.70;99.90;;;;;;4994053;28;20039;-74
2023/09/04 08:18:00;;;;;;;31.73;15.57;;;16.80;99.90;;;;;;4996255;28;20524;-74
2023/09/04 08:20:26;;;;;;;34.30;15.32;;;16.90;99.90;;;;;;4993191;28;20046;-73
2023/09/04 08:22:52;;;;;;;33.88;15.43;;;17.00;99.90;;;;;;4993474;28;20050;-73
2023/09/04 08:25:18;;;;;;;31.43;15.00;;;17.10;99.90;;;;;;4993227;28;20140;-74
2023/09/04 08:27:43;;;;;;;27.40;14.30;;;17.20;99.90;;;;;;4993261;28;20046;-74
2023/09/04 08:30:09;;;;;;;33.28;14.95;;;17.30;99.90;;;;;;4994224;28;20193;-73
2023/09/04 08:32:35;;;;;;;29.43;14.37;;;17.40;99.90;;;;;;4994213;28;20044;-73
2023/09/04 08:35:02;;;;;;;28.30;13.18;;;17.50;99.90;;;;;;4993285;28;20364;-72
2023/09/04 08:37:27;;;;;;;27.20;12.45;;;17.60;99.90;;;;;;4992583;28;20490;-74
2023/09/04 08:39:53;;;;;;;28.25;12.38;;;17.70;99.90;;;;;;4992875;28;20052;-73
2023/09/04 08:42:19;;;;;;;22.20;11.90;;;17.80;99.90;;;;;;4992878;28;20093;-73
2023/09/04 08:44:46;;;;;;;23.15;12.35;;;17.90;99.90;;;;;;4994282;28;20057;-71
2023/09/04 08:47:15;;;;;;;25.10;12.05;;;18.00;99.90;;;;;;4976779;28;20062;-72
2023/09/04 08:49:43;;;;;;;25.58;12.10;;;18.20;99.90;;;;;;4976376;28;20086;-71
2023/09/04 08:52:09;;;;;;;23.55;11.70;;;18.30;99.90;;;;;;4994031;28;20439;-72
2023/09/04 08:54:36;;;;;;;26.30;12.10;;;18.30;99.90;;;;;;4992886;28;20380;-76
2023/09/04 08:57:01;;;;;;;22.02;10.77;;;18.40;99.90;;;;;;4993024;28;20129;-77
2023/09/04 08:59:28;;;;;;;24.48;11.25;;;18.50;99.90;;;;;;4992763;28;20493;-74
2023/09/04 09:01:56;;;;;;;23.23;10.75;;;18.50;99.90;;;;;;4994759;28;20065;-70
2023/09/04 09:04:22;;;;;;;26.98;10.60;;;18.60;99.90;;;;;;4993987;28;20088;-74
2023/09/04 09:06:50;;;;;;;20.27;9.90;;;18.70;99.90;;;;;;4994332;28;20117;-76
2023/09/04 09:09:16;;;;;;;18.15;9.75;;;18.80;99.90;;;;;;4997752;28;20050;-70
2023/09/04 09:11:42;;;;;;;19.70;9.98;;;18.90;99.90;;;;;;4980952;28;20062;-75
2023/09/04 09:14:11;;;;;;;25.67;10.20;;;18.90;99.90;;;;;;4998954;28;20101;-81
2023/09/04 09:16:37;;;;;;;21.75;10.00;;;19.00;99.90;;;;;;4997789;28;20046;-71
2023/09/04 09:19:03;;;;;;;23.63;9.80;;;19.10;99.90;;;;;;4996856;28;20144;-73
2023/09/04 09:21:33;;;;;;;18.93;9.73;;;19.10;99.90;;;;;;4997815;28;20455;-71
2023/09/04 09:24:19;;;;;;;20.70;9.35;;;19.20;99.90;;;;;;4996522;28;20047;-75
2023/09/04 09:26:49;;;;;;;20.88;9.80;;;19.30;99.90;;;;;;4997093;28;20042;-75
2023/09/04 09:29:17;;;;;;;21.42;10.15;;;19.40;99.90;;;;;;4997894;28;20442;-75
2023/09/04 09:31:45;;;;;;;20.45;10.30;;;19.40;99.90;;;;;;4996491;28;20050;-73
2023/09/04 09:34:12;;;;;;;24.88;11.07;;;19.50;99.90;;;;;;4997534;28;20045;-75
2023/09/04 09:36:38;;;;;;;24.67;11.15;;;19.60;99.90;;;;;;4979848;28;20521;-74
2023/09/04 09:39:05;;;;;;;24.13;11.03;;;19.60;99.90;;;;;;4996185;28;20093;-74
2023/09/04 09:41:31;;;;;;;30.15;10.73;;;19.70;99.90;;;;;;4997226;28;20057;-74
2023/09/04 09:44:04;;;;;;;28.33;10.93;;;19.80;99.90;;;;;;4998068;28;20046;-75
2023/09/04 09:46:30;;;;;;;24.85;10.05;;;19.90;99.90;;;;;;4997748;28;20112;-75
2023/09/04 09:48:56;;;;;;;22.98;10.60;;;19.90;99.90;;;;;;4997257;28;20089;-75
2023/09/04 09:51:22;;;;;;;20.50;8.60;;;20.00;99.90;;;;;;4997294;28;20051;-74
2023/09/04 09:53:51;;;;;;;16.57;8.30;;;20.10;99.90;;;;;;4996005;28;20050;-75
2023/09/04 09:56:18;;;;;;;20.88;8.70;;;20.20;99.90;;;;;;4996152;28;20300;-73
2023/09/04 09:58:46;;;;;;;20.13;8.88;;;20.20;99.90;;;;;;4997090;28;20504;-76
2023/09/04 10:01:13;;;;;;;23.13;8.57;;;20.20;99.90;;;;;;4997084;28;20121;-73
2023/09/04 10:03:39;;;;;;;20.67;8.90;;;20.40;99.90;;;;;;4995590;28;20042;-74
2023/09/04 10:06:08;;;;;;;21.83;8.93;;;20.40;99.90;;;;;;4997517;28;20097;-70
2023/09/04 10:08:40;;;;;;;18.73;8.05;;;20.40;99.90;;;;;;4996992;28;20049;-71
2023/09/04 10:11:09;;;;;;;18.25;8.68;;;20.50;99.90;;;;;;4996778;28;20390;-73
2023/09/04 10:13:41;;;;;;;26.80;9.10;;;20.60;99.90;;;;;;4995301;28;20046;-73
2023/09/04 10:16:11;;;;;;;20.70;7.90;;;20.70;99.90;;;;;;4997273;28;20493;-73
2023/09/04 10:18:40;;;;;;;20.08;8.13;;;20.80;99.90;;;;;;4994844;28;20110;-73
2023/09/04 10:21:12;;;;;;;19.95;8.73;;;20.70;99.90;;;;;;4996589;28;20053;-73
2023/09/04 10:23:44;;;;;;;20.13;7.97;;;20.80;99.90;;;;;;4997291;28;20048;-73
2023/09/04 10:26:24;;;;;;;21.10;8.30;;;20.80;99.90;;;;;;4979179;28;20053;-73
2023/09/04 10:29:03;;;;;;;18.52;8.02;;;20.90;99.90;;;;;;4996431;28;20057;-72
2023/09/04 10:31:32;;;;;;;20.13;7.88;;;21.00;99.90;;;;;;4996999;28;20081;-74
2023/09/04 10:34:00;;;;;;;16.50;6.88;;;21.00;99.90;;;;;;4996586;28;20050;-73
2023/09/04 10:36:28;;;;;;;15.95;6.90;;;21.10;99.90;;;;;;4997127;28;20120;-76
2023/09/04 10:38:55;;;;;;;19.73;7.32;;;21.10;99.90;;;;;;4979381;28;20141;-73
2023/09/04 10:41:21;;;;;;;17.42;6.32;;;21.20;99.90;;;;;;4996263;28;20054;-74
2023/09/04 10:43:46;;;;;;;16.23;6.85;;;21.20;99.90;;;;;;4996179;28;20049;-76
2023/09/04 10:46:14;;;;;;;19.50;8.33;;;21.30;99.90;;;;;;4996269;28;20047;-72
2023/09/04 10:48:43;;;;;;;15.10;7.32;;;21.40;99.90;;;;;;4996051;28;20058;-74
2023/09/04 10:51:28;;;;;;;19.85;8.07;;;21.40;99.90;;;;;;4995405;28;20042;-75
2023/09/04 10:53:56;;;;;;;14.98;6.35;;;21.50;99.90;;;;;;4995288;28;20046;-74
2023/09/04 10:56:21;;;;;;;14.25;6.88;;;21.50;99.90;;;;;;4995997;28;20073;-74
2023/09/04 10:59:01;;;;;;;17.30;7.63;;;21.60;99.90;;;;;;4994780;28;20050;-74
2023/09/04 11:01:32;;;;;;;21.75;7.95;;;21.70;99.90;;;;;;4995177;28;20046;-74
2023/09/04 11:04:01;;;;;;;17.88;8.30;;;21.60;99.90;;;;;;4995595;28;20066;-75
2023/09/04 11:06:26;;;;;;;19.60;8.43;;;21.70;99.90;;;;;;4995424;28;20050;-75
2023/09/04 11:08:52;;;;;;;16.30;7.63;;;21.70;99.90;;;;;;4995684;28;20046;-73
2023/09/04 11:11:25;;;;;;;19.43;8.83;;;21.70;99.90;;;;;;4994859;28;20105;-76
2023/09/04 11:14:12;;;;;;;19.33;8.57;;;21.80;99.90;;;;;;4978650;28;20130;-74
2023/09/04 11:16:42;;;;;;;17.30;7.20;;;21.80;99.90;;;;;;4995880;28;20054;-73
2023/09/04 11:19:13;;;;;;;17.48;6.88;;;21.90;99.90;;;;;;4978610;28;20371;-75
2023/09/04 11:21:43;;;;;;;15.50;7.20;;;22.00;99.90;;;;;;4995763;28;20046;-73
2023/09/04 11:24:09;;;;;;;18.38;7.97;;;22.00;99.90;;;;;;4994692;28;20050;-74
2023/09/04 11:26:34;;;;;;;18.23;7.07;;;22.10;99.90;;;;;;4994301;28;20112;-75
2023/09/04 11:29:03;;;;;;;17.60;6.33;;;22.20;99.90;;;;;;4994153;28;20122;-76
2023/09/04 11:31:31;;;;;;;18.98;6.88;;;22.20;99.90;;;;;;4995235;28;20442;-69
2023/09/04 11:33:57;;;;;;;17.73;7.22;;;22.30;99.90;;;;;;4995176;28;20200;-74
2023/09/04 11:36:24;;;;;;;15.60;7.47;;;22.40;99.90;;;;;;4994510;28;20482;-75
2023/09/04 11:39:06;;;;;;;14.25;6.72;;;22.50;99.90;;;;;;4993981;28;20105;-74
2023/09/04 11:41:32;;;;;;;14.52;6.22;;;22.50;99.90;;;;;;4994089;28;20046;-75
2023/09/04 11:43:59;;;;;;;10.43;5.38;;;22.60;99.90;;;;;;4995235;28;20418;-74
2023/09/04 11:46:25;;;;;;;;;;;22.70;99.90;;;;;;4997393;28;20061;-75
2023/09/04 11:48:51;;;;;;;12.93;5.38;;;22.80;99.90;;;;;;4979650;28;19921;-74
2023/09/04 11:51:17;;;;;;;15.93;6.40;;;22.80;99.90;;;;;;4993854;28;20049;-74
2023/09/04 11:53:44;;;;;;;13.90;5.30;;;22.90;99.90;;;;;;4993593;28;20051;-74
2023/09/04 11:56:10;;;;;;;12.88;5.22;;;22.90;99.90;;;;;;4994862;28;20093;-75
2023/09/04 11:58:37;;;;;;;12.93;5.90;;;22.90;99.90;;;;;;4994989;28;20090;-75
2023/09/04 12:01:03;;;;;;;13.55;6.63;;;22.90;99.90;;;;;;4995101;28;20454;-75
2023/09/04 12:03:28;;;;;;;11.60;5.80;;;22.90;99.90;;;;;;4995344;28;20395;-75
2023/09/04 12:05:55;;;;;;;16.55;6.38;;;22.90;99.90;;;;;;4994550;28;20058;-75
2023/09/04 12:08:21;;;;;;;12.65;6.03;;;22.90;99.90;;;;;;4962272;28;20146;-72
2023/09/04 12:10:48;;;;;;;19.58;5.78;;;22.90;99.90;;;;;;4993761;28;20052;-75
2023/09/04 12:13:15;;;;;;;15.02;6.47;;;23.00;99.90;;;;;;4994400;28;20034;-75
2023/09/04 12:15:41;;;;;;;12.65;6.10;;;23.00;99.90;;;;;;4994016;28;20054;-73
2023/09/04 12:18:09;;;;;;;11.83;5.27;;;22.90;99.90;;;;;;4994489;28;20053;-74
2023/09/04 12:20:35;;;;;;;10.82;4.90;;;23.00;99.90;;;;;;4994454;28;20411;-70
2023/09/04 12:23:02;;;;;;;12.35;4.65;;;23.00;99.90;;;;;;4993539;28;20046;-72
2023/09/04 12:25:42;;;;;;;10.38;4.47;;;23.10;99.90;;;;;;4994305;28;20073;-73
2023/09/04 12:28:10;;;;;;;10.40;4.82;;;23.10;99.90;;;;;;4993351;28;20122;-72
2023/09/04 12:30:37;;;;;;;10.05;4.68;;;23.10;99.90;;;;;;4994776;28;20050;-72
2023/09/04 12:33:06;;;;;;;13.02;5.15;;;23.20;99.90;;;;;;4992799;28;20073;-74